sensor_id;sensor_type;location;lat;lon;timestamp;P1;durP1;ratioP1;P2;durP2;ratioP2
5297;SDS011;14738;42.668;23.250;2023-07-29T00:00:44;4.23;;;3.93;;
5297;SDS011;14738;42.668;23.250;2023-07-29T00:03:09;4.53;;;4.23;;
5297;SDS011;14738;42.668;23.250;2023-07-29T00:05:36;3.77;;;3.53;;
5297;SDS011;14738;42.668;23.250;2023-07-29T00:08:02;4.10;;;3.80;;
5297;SDS011;14738;42.668;23.250;2023-07-29T00:10:28;3.50;;;3.27;;
5297;SDS011;14738;42.668;23.250;2023-07-29T00:12:56;4.20;;;3.97;;
5297;SDS011;14738;42.668;23.250;2023-07-29T00:15:21;3.23;;;3.10;;
5297;SDS011;14738;42.668;23.250;2023-07-29T00:17:47;4.17;;;3.87;;
5297;SDS011;14738;42.668;23.250;2023-07-29T00:20:12;3.80;;;3.50;;
5297;SDS011;14738;42.668;23.250;2023-07-29T00:22:37;4.27;;;4.07;;
5297;SDS011;14738;42.668;23.250;2023-07-29T00:25:03;3.97;;;3.67;;
5297;SDS011;14738;42.668;23.250;2023-07-29T00:27:29;4.20;;;3.87;;
5297;SDS011;14738;42.668;23.250;2023-07-29T00:29:54;3.90;;;3.70;;
5297;SDS011;14738;42.668;23.250;2023-07-29T00:32:20;4.23;;;3.90;;
5297;SDS011;14738;42.668;23.250;2023-07-29T00:34:45;4.60;;;4.20;;
5297;SDS011;14738;42.668;23.250;2023-07-29T00:37:10;4.63;;;4.17;;
5297;SDS011;14738;42.668;23.250;2023-07-29T00:39:37;4.70;;;3.90;;
5297;SDS011;14738;42.668;23.250;2023-07-29T00:42:02;5.13;;;4.50;;
5297;SDS011;14738;42.668;23.250;2023-07-29T00:44:28;4.33;;;4.03;;
5297;SDS011;14738;42.668;23.250;2023-07-29T00:46:56;4.00;;;3.70;;
5297;SDS011;14738;42.668;23.250;2023-07-29T00:49:22;3.97;;;3.57;;
5297;SDS011;14738;42.668;23.250;2023-07-29T00:51:47;3.90;;;3.60;;
5297;SDS011;14738;42.668;23.250;2023-07-29T00:54:13;3.90;;;3.70;;
5297;SDS011;14738;42.668;23.250;2023-07-29T00:56:39;4.40;;;4.20;;
5297;SDS011;14738;42.668;23.250;2023-07-29T00:59:05;4.33;;;4.03;;
5297;SDS011;14738;42.668;23.250;2023-07-29T01:01:31;4.40;;;4.00;;
5297;SDS011;14738;42.668;23.250;2023-07-29T01:03:57;4.93;;;4.00;;
5297;SDS011;14738;42.668;23.250;2023-07-29T01:06:46;4.57;;;4.17;;
5297;SDS011;14738;42.668;23.250;2023-07-29T01:09:33;4.53;;;4.13;;
5297;SDS011;14738;42.668;23.250;2023-07-29T01:12:08;4.93;;;4.43;;
5297;SDS011;14738;42.668;23.250;2023-07-29T01:17:13;5.00;;;4.70;;
5297;SDS011;14738;42.668;23.250;2023-07-29T01:22:24;4.70;;;4.40;;
5297;SDS011;14738;42.668;23.250;2023-07-29T01:24:50;5.20;;;4.70;;
5297;SDS011;14738;42.668;23.250;2023-07-29T01:27:15;4.50;;;4.20;;
5297;SDS011;14738;42.668;23.250;2023-07-29T01:29:41;5.17;;;4.40;;
5297;SDS011;14738;42.668;23.250;2023-07-29T01:32:10;6.77;;;4.80;;
5297;SDS011;14738;42.668;23.250;2023-07-29T01:34:41;4.37;;;3.93;;
5297;SDS011;14738;42.668;23.250;2023-07-29T01:37:27;3.93;;;3.70;;
5297;SDS011;14738;42.668;23.250;2023-07-29T01:39:57;5.17;;;4.30;;
5297;SDS011;14738;42.668;23.250;2023-07-29T01:42:25;4.53;;;4.23;;
5297;SDS011;14738;42.668;23.250;2023-07-29T01:44:51;4.50;;;4.10;;
5297;SDS011;14738;42.668;23.250;2023-07-29T01:47:17;5.37;;;4.97;;
5297;SDS011;14738;42.668;23.250;2023-07-29T01:49:43;5.00;;;4.70;;
5297;SDS011;14738;42.668;23.250;2023-07-29T01:52:08;5.00;;;4.60;;
5297;SDS011;14738;42.668;23.250;2023-07-29T01:54:34;4.60;;;4.30;;
5297;SDS011;14738;42.668;23.250;2023-07-29T01:56:59;4.73;;;4.43;;
5297;SDS011;14738;42.668;23.250;2023-07-29T01:59:24;4.97;;;4.57;;
5297;SDS011;14738;42.668;23.250;2023-07-29T02:01:50;5.60;;;5.20;;
5297;SDS011;14738;42.668;23.250;2023-07-29T02:04:15;5.60;;;5.10;;
5297;SDS011;14738;42.668;23.250;2023-07-29T02:06:41;5.47;;;5.07;;
5297;SDS011;14738;42.668;23.250;2023-07-29T02:09:06;4.70;;;4.40;;
5297;SDS011;14738;42.668;23.250;2023-07-29T02:11:32;6.77;;;5.43;;
5297;SDS011;14738;42.668;23.250;2023-07-29T02:13:57;5.20;;;4.90;;
5297;SDS011;14738;42.668;23.250;2023-07-29T02:16:23;5.23;;;4.83;;
5297;SDS011;14738;42.668;23.250;2023-07-29T02:18:49;5.27;;;4.87;;
5297;SDS011;14738;42.668;23.250;2023-07-29T02:21:17;4.77;;;4.47;;
5297;SDS011;14738;42.668;23.250;2023-07-29T02:26:11;5.57;;;5.07;;
5297;SDS011;14738;42.668;23.250;2023-07-29T02:28:36;4.97;;;4.67;;
5297;SDS011;14738;42.668;23.250;2023-07-29T02:33:46;4.87;;;4.57;;
5297;SDS011;14738;42.668;23.250;2023-07-29T02:36:12;6.10;;;4.50;;
5297;SDS011;14738;42.668;23.250;2023-07-29T02:38:38;5.50;;;5.07;;
5297;SDS011;14738;42.668;23.250;2023-07-29T02:41:04;5.00;;;4.70;;
5297;SDS011;14738;42.668;23.250;2023-07-29T02:43:30;4.70;;;4.40;;
5297;SDS011;14738;42.668;23.250;2023-07-29T02:45:55;5.17;;;4.77;;
5297;SDS011;14738;42.668;23.250;2023-07-29T02:48:21;5.63;;;5.13;;
5297;SDS011;14738;42.668;23.250;2023-07-29T02:50:46;6.33;;;5.00;;
5297;SDS011;14738;42.668;23.250;2023-07-29T02:53:12;5.17;;;4.70;;
5297;SDS011;14738;42.668;23.250;2023-07-29T02:55:40;5.10;;;4.70;;
5297;SDS011;14738;42.668;23.250;2023-07-29T02:58:06;5.60;;;5.20;;
5297;SDS011;14738;42.668;23.250;2023-07-29T03:00:32;6.03;;;4.73;;
5297;SDS011;14738;42.668;23.250;2023-07-29T03:02:58;5.10;;;4.70;;
5297;SDS011;14738;42.668;23.250;2023-07-29T03:05:23;6.47;;;5.37;;
5297;SDS011;14738;42.668;23.250;2023-07-29T03:07:49;10.23;;;4.37;;
5297;SDS011;14738;42.668;23.250;2023-07-29T03:10:14;5.67;;;5.27;;
5297;SDS011;14738;42.668;23.250;2023-07-29T03:12:40;5.00;;;4.60;;
5297;SDS011;14738;42.668;23.250;2023-07-29T03:15:05;8.37;;;5.07;;
5297;SDS011;14738;42.668;23.250;2023-07-29T03:17:31;5.60;;;5.10;;
5297;SDS011;14738;42.668;23.250;2023-07-29T03:19:57;4.53;;;4.23;;
5297;SDS011;14738;42.668;23.250;2023-07-29T03:22:22;4.70;;;4.40;;
5297;SDS011;14738;42.668;23.250;2023-07-29T03:24:48;5.83;;;5.30;;
5297;SDS011;14738;42.668;23.250;2023-07-29T03:27:13;4.30;;;3.90;;
5297;SDS011;14738;42.668;23.250;2023-07-29T03:29:41;5.13;;;4.70;;
5297;SDS011;14738;42.668;23.250;2023-07-29T03:32:06;5.60;;;5.10;;
5297;SDS011;14738;42.668;23.250;2023-07-29T03:34:32;4.70;;;4.40;;
5297;SDS011;14738;42.668;23.250;2023-07-29T03:36:57;4.50;;;4.13;;
5297;SDS011;14738;42.668;23.250;2023-07-29T03:39:24;5.20;;;4.80;;
5297;SDS011;14738;42.668;23.250;2023-07-29T03:41:49;4.70;;;4.40;;
5297;SDS011;14738;42.668;23.250;2023-07-29T03:44:14;4.73;;;4.43;;
5297;SDS011;14738;42.668;23.250;2023-07-29T03:46:40;6.20;;;4.30;;
5297;SDS011;14738;42.668;23.250;2023-07-29T03:49:05;4.57;;;4.27;;
5297;SDS011;14738;42.668;23.250;2023-07-29T03:51:31;4.47;;;4.10;;
5297;SDS011;14738;42.668;23.250;2023-07-29T03:53:56;4.63;;;4.23;;
5297;SDS011;14738;42.668;23.250;2023-07-29T03:56:21;5.23;;;4.83;;
5297;SDS011;14738;42.668;23.250;2023-07-29T03:58:47;4.60;;;4.30;;
5297;SDS011;14738;42.668;23.250;2023-07-29T04:01:14;5.57;;;4.40;;
5297;SDS011;14738;42.668;23.250;2023-07-29T04:03:40;4.77;;;4.47;;
5297;SDS011;14738;42.668;23.250;2023-07-29T04:06:05;6.27;;;4.90;;
5297;SDS011;14738;42.668;23.250;2023-07-29T04:08:30;5.63;;;5.10;;
5297;SDS011;14738;42.668;23.250;2023-07-29T04:10:56;5.07;;;4.77;;
5297;SDS011;14738;42.668;23.250;2023-07-29T04:13:22;4.47;;;4.17;;
5297;SDS011;14738;42.668;23.250;2023-07-29T04:15:47;5.27;;;4.83;;
5297;SDS011;14738;42.668;23.250;2023-07-29T04:18:12;5.67;;;4.63;;
5297;SDS011;14738;42.668;23.250;2023-07-29T04:20:38;5.77;;;4.63;;
5297;SDS011;14738;42.668;23.250;2023-07-29T04:23:03;6.23;;;4.93;;
5297;SDS011;14738;42.668;23.250;2023-07-29T04:25:29;4.90;;;4.50;;
5297;SDS011;14738;42.668;23.250;2023-07-29T04:27:54;5.40;;;4.90;;
5297;SDS011;14738;42.668;23.250;2023-07-29T04:30:20;5.50;;;4.97;;
5297;SDS011;14738;42.668;23.250;2023-07-29T04:32:46;5.00;;;4.60;;
5297;SDS011;14738;42.668;23.250;2023-07-29T04:35:13;5.33;;;4.83;;
5297;SDS011;14738;42.668;23.250;2023-07-29T04:37:39;6.37;;;5.30;;
5297;SDS011;14738;42.668;23.250;2023-07-29T04:40:06;5.80;;;5.03;;
5297;SDS011;14738;42.668;23.250;2023-07-29T04:42:32;5.63;;;4.93;;
5297;SDS011;14738;42.668;23.250;2023-07-29T04:44:57;5.70;;;5.10;;
5297;SDS011;14738;42.668;23.250;2023-07-29T04:47:23;5.70;;;5.17;;
5297;SDS011;14738;42.668;23.250;2023-07-29T04:49:48;9.63;;;4.90;;
5297;SDS011;14738;42.668;23.250;2023-07-29T04:52:14;5.60;;;5.10;;
5297;SDS011;14738;42.668;23.250;2023-07-29T04:54:40;6.17;;;5.60;;
5297;SDS011;14738;42.668;23.250;2023-07-29T04:57:06;6.70;;;5.37;;
5297;SDS011;14738;42.668;23.250;2023-07-29T04:59:31;5.90;;;5.40;;
5297;SDS011;14738;42.668;23.250;2023-07-29T05:01:57;6.17;;;5.43;;
5297;SDS011;14738;42.668;23.250;2023-07-29T05:04:23;6.90;;;5.60;;
5297;SDS011;14738;42.668;23.250;2023-07-29T05:06:48;10.70;;;5.93;;
5297;SDS011;14738;42.668;23.250;2023-07-29T05:09:17;6.20;;;5.70;;
5297;SDS011;14738;42.668;23.250;2023-07-29T05:11:44;11.23;;;6.50;;
5297;SDS011;14738;42.668;23.250;2023-07-29T05:14:14;7.27;;;5.40;;
5297;SDS011;14738;42.668;23.250;2023-07-29T05:16:40;7.37;;;4.93;;
5297;SDS011;14738;42.668;23.250;2023-07-29T05:19:05;5.93;;;5.43;;
5297;SDS011;14738;42.668;23.250;2023-07-29T05:21:31;6.60;;;6.10;;
5297;SDS011;14738;42.668;23.250;2023-07-29T05:23:56;6.33;;;5.77;;
5297;SDS011;14738;42.668;23.250;2023-07-29T05:26:22;6.57;;;5.87;;
5297;SDS011;14738;42.668;23.250;2023-07-29T05:28:48;12.37;;;5.90;;
5297;SDS011;14738;42.668;23.250;2023-07-29T05:31:13;6.03;;;5.50;;
5297;SDS011;14738;42.668;23.250;2023-07-29T05:33:39;5.97;;;5.47;;
5297;SDS011;14738;42.668;23.250;2023-07-29T05:36:04;7.20;;;6.03;;
5297;SDS011;14738;42.668;23.250;2023-07-29T05:38:30;6.37;;;5.80;;
5297;SDS011;14738;42.668;23.250;2023-07-29T05:40:56;6.50;;;5.30;;
5297;SDS011;14738;42.668;23.250;2023-07-29T05:43:21;6.27;;;5.77;;
5297;SDS011;14738;42.668;23.250;2023-07-29T05:45:48;6.70;;;5.60;;
5297;SDS011;14738;42.668;23.250;2023-07-29T05:48:14;5.97;;;5.50;;
5297;SDS011;14738;42.668;23.250;2023-07-29T05:50:39;5.50;;;4.90;;
5297;SDS011;14738;42.668;23.250;2023-07-29T05:53:05;7.00;;;5.23;;
5297;SDS011;14738;42.668;23.250;2023-07-29T05:55:30;5.27;;;4.90;;
5297;SDS011;14738;42.668;23.250;2023-07-29T05:57:56;5.80;;;4.83;;
5297;SDS011;14738;42.668;23.250;2023-07-29T06:00:22;6.37;;;5.20;;
5297;SDS011;14738;42.668;23.250;2023-07-29T06:02:48;5.53;;;5.13;;
5297;SDS011;14738;42.668;23.250;2023-07-29T06:05:13;8.63;;;5.50;;
5297;SDS011;14738;42.668;23.250;2023-07-29T06:07:39;7.13;;;5.17;;
5297;SDS011;14738;42.668;23.250;2023-07-29T06:10:09;5.63;;;5.10;;
5297;SDS011;14738;42.668;23.250;2023-07-29T06:12:36;5.40;;;5.10;;
5297;SDS011;14738;42.668;23.250;2023-07-29T06:15:02;5.20;;;4.80;;
5297;SDS011;14738;42.668;23.250;2023-07-29T06:17:28;5.17;;;4.50;;
5297;SDS011;14738;42.668;23.250;2023-07-29T06:19:54;4.97;;;4.67;;
5297;SDS011;14738;42.668;23.250;2023-07-29T06:22:19;5.30;;;4.80;;
5297;SDS011;14738;42.668;23.250;2023-07-29T06:24:44;9.10;;;5.50;;
5297;SDS011;14738;42.668;23.250;2023-07-29T06:27:10;5.80;;;4.93;;
5297;SDS011;14738;42.668;23.250;2023-07-29T06:29:35;5.47;;;5.07;;
5297;SDS011;14738;42.668;23.250;2023-07-29T06:32:01;5.73;;;5.33;;
5297;SDS011;14738;42.668;23.250;2023-07-29T06:34:26;8.10;;;5.70;;
5297;SDS011;14738;42.668;23.250;2023-07-29T06:36:52;6.20;;;5.33;;
5297;SDS011;14738;42.668;23.250;2023-07-29T06:39:17;5.37;;;4.87;;
5297;SDS011;14738;42.668;23.250;2023-07-29T06:41:43;8.43;;;5.33;;
5297;SDS011;14738;42.668;23.250;2023-07-29T06:44:08;8.90;;;4.73;;
5297;SDS011;14738;42.668;23.250;2023-07-29T06:46:33;7.43;;;5.00;;
5297;SDS011;14738;42.668;23.250;2023-07-29T06:48:59;8.57;;;5.50;;
5297;SDS011;14738;42.668;23.250;2023-07-29T06:51:24;7.80;;;5.20;;
5297;SDS011;14738;42.668;23.250;2023-07-29T06:53:50;5.57;;;4.97;;
5297;SDS011;14738;42.668;23.250;2023-07-29T06:56:15;5.27;;;4.73;;
5297;SDS011;14738;42.668;23.250;2023-07-29T06:58:41;7.47;;;5.43;;
5297;SDS011;14738;42.668;23.250;2023-07-29T07:01:06;5.73;;;5.23;;
5297;SDS011;14738;42.668;23.250;2023-07-29T07:03:31;5.10;;;4.70;;
5297;SDS011;14738;42.668;23.250;2023-07-29T07:05:57;5.67;;;4.67;;
5297;SDS011;14738;42.668;23.250;2023-07-29T07:08:22;5.03;;;4.63;;
5297;SDS011;14738;42.668;23.250;2023-07-29T07:10:48;5.73;;;5.20;;
5297;SDS011;14738;42.668;23.250;2023-07-29T07:13:13;8.70;;;4.30;;
5297;SDS011;14738;42.668;23.250;2023-07-29T07:15:38;4.87;;;4.30;;
5297;SDS011;14738;42.668;23.250;2023-07-29T07:18:04;4.80;;;4.10;;
5297;SDS011;14738;42.668;23.250;2023-07-29T07:20:29;5.67;;;5.13;;
5297;SDS011;14738;42.668;23.250;2023-07-29T07:22:55;6.13;;;5.10;;
5297;SDS011;14738;42.668;23.250;2023-07-29T07:25:21;5.13;;;4.73;;
5297;SDS011;14738;42.668;23.250;2023-07-29T07:27:47;5.53;;;5.10;;
5297;SDS011;14738;42.668;23.250;2023-07-29T07:30:13;5.30;;;4.80;;
5297;SDS011;14738;42.668;23.250;2023-07-29T07:32:39;6.97;;;5.00;;
5297;SDS011;14738;42.668;23.250;2023-07-29T07:35:04;5.67;;;5.17;;
5297;SDS011;14738;42.668;23.250;2023-07-29T07:37:30;6.00;;;5.03;;
5297;SDS011;14738;42.668;23.250;2023-07-29T07:39:56;4.70;;;4.30;;
5297;SDS011;14738;42.668;23.250;2023-07-29T07:42:21;6.03;;;5.13;;
5297;SDS011;14738;42.668;23.250;2023-07-29T07:44:46;4.90;;;4.30;;
5297;SDS011;14738;42.668;23.250;2023-07-29T07:47:12;7.43;;;5.70;;
5297;SDS011;14738;42.668;23.250;2023-07-29T07:49:37;8.00;;;5.80;;
5297;SDS011;14738;42.668;23.250;2023-07-29T07:52:03;8.73;;;5.20;;
5297;SDS011;14738;42.668;23.250;2023-07-29T07:54:29;7.03;;;5.17;;
5297;SDS011;14738;42.668;23.250;2023-07-29T07:56:54;5.40;;;5.00;;
5297;SDS011;14738;42.668;23.250;2023-07-29T07:59:20;7.87;;;4.67;;
5297;SDS011;14738;42.668;23.250;2023-07-29T08:01:45;6.70;;;5.07;;
5297;SDS011;14738;42.668;23.250;2023-07-29T08:04:11;6.80;;;6.20;;
5297;SDS011;14738;42.668;23.250;2023-07-29T08:06:37;6.27;;;5.73;;
5297;SDS011;14738;42.668;23.250;2023-07-29T08:09:02;5.97;;;5.40;;
5297;SDS011;14738;42.668;23.250;2023-07-29T08:11:28;8.13;;;6.67;;
5297;SDS011;14738;42.668;23.250;2023-07-29T08:13:53;7.17;;;5.50;;
5297;SDS011;14738;42.668;23.250;2023-07-29T08:16:19;8.23;;;6.67;;
5297;SDS011;14738;42.668;23.250;2023-07-29T08:18:44;7.30;;;5.80;;
5297;SDS011;14738;42.668;23.250;2023-07-29T08:21:10;8.97;;;6.40;;
5297;SDS011;14738;42.668;23.250;2023-07-29T08:23:35;6.80;;;6.03;;
5297;SDS011;14738;42.668;23.250;2023-07-29T08:26:03;7.83;;;5.97;;
5297;SDS011;14738;42.668;23.250;2023-07-29T08:28:31;6.67;;;6.07;;
5297;SDS011;14738;42.668;23.250;2023-07-29T08:30:58;8.33;;;5.50;;
5297;SDS011;14738;42.668;23.250;2023-07-29T08:33:24;5.90;;;5.40;;
5297;SDS011;14738;42.668;23.250;2023-07-29T08:35:50;6.07;;;5.03;;
5297;SDS011;14738;42.668;23.250;2023-07-29T08:38:16;5.67;;;5.07;;
5297;SDS011;14738;42.668;23.250;2023-07-29T08:40:42;5.00;;;4.60;;
5297;SDS011;14738;42.668;23.250;2023-07-29T08:43:14;5.30;;;4.90;;
5297;SDS011;14738;42.668;23.250;2023-07-29T08:45:43;8.17;;;5.23;;
5297;SDS011;14738;42.668;23.250;2023-07-29T08:48:09;5.47;;;4.97;;
5297;SDS011;14738;42.668;23.250;2023-07-29T08:50:36;8.23;;;5.43;;
5297;SDS011;14738;42.668;23.250;2023-07-29T08:53:05;5.40;;;4.73;;
5297;SDS011;14738;42.668;23.250;2023-07-29T08:55:31;5.23;;;4.83;;
5297;SDS011;14738;42.668;23.250;2023-07-29T08:57:57;4.80;;;4.50;;
5297;SDS011;14738;42.668;23.250;2023-07-29T09:00:23;4.30;;;4.00;;
5297;SDS011;14738;42.668;23.250;2023-07-29T09:02:50;5.37;;;4.30;;
5297;SDS011;14738;42.668;23.250;2023-07-29T09:05:15;3.77;;;3.47;;
5297;SDS011;14738;42.668;23.250;2023-07-29T09:07:41;4.37;;;3.97;;
5297;SDS011;14738;42.668;23.250;2023-07-29T09:10:09;4.53;;;3.70;;
5297;SDS011;14738;42.668;23.250;2023-07-29T09:12:37;6.90;;;3.63;;
5297;SDS011;14738;42.668;23.250;2023-07-29T09:15:03;4.33;;;3.93;;
5297;SDS011;14738;42.668;23.250;2023-07-29T09:17:32;4.00;;;3.80;;
5297;SDS011;14738;42.668;23.250;2023-07-29T09:19:58;4.73;;;4.27;;
5297;SDS011;14738;42.668;23.250;2023-07-29T09:22:24;4.00;;;3.70;;
5297;SDS011;14738;42.668;23.250;2023-07-29T09:24:52;3.60;;;3.30;;
5297;SDS011;14738;42.668;23.250;2023-07-29T09:27:28;3.67;;;3.37;;
5297;SDS011;14738;42.668;23.250;2023-07-29T09:29:56;4.00;;;3.70;;
5297;SDS011;14738;42.668;23.250;2023-07-29T09:32:23;3.87;;;3.60;;
5297;SDS011;14738;42.668;23.250;2023-07-29T09:34:50;5.60;;;3.87;;
5297;SDS011;14738;42.668;23.250;2023-07-29T09:37:16;3.83;;;3.43;;
5297;SDS011;14738;42.668;23.250;2023-07-29T09:39:46;4.07;;;3.77;;
5297;SDS011;14738;42.668;23.250;2023-07-29T09:42:22;5.20;;;3.70;;
5297;SDS011;14738;42.668;23.250;2023-07-29T09:44:48;6.03;;;3.27;;
5297;SDS011;14738;42.668;23.250;2023-07-29T09:47:21;3.00;;;2.80;;
5297;SDS011;14738;42.668;23.250;2023-07-29T09:49:52;3.40;;;3.20;;
5297;SDS011;14738;42.668;23.250;2023-07-29T09:52:22;4.17;;;3.70;;
5297;SDS011;14738;42.668;23.250;2023-07-29T09:54:48;3.00;;;2.80;;
5297;SDS011;14738;42.668;23.250;2023-07-29T09:57:14;4.03;;;2.73;;
5297;SDS011;14738;42.668;23.250;2023-07-29T09:59:41;3.50;;;3.13;;
5297;SDS011;14738;42.668;23.250;2023-07-29T10:02:14;3.53;;;3.27;;
5297;SDS011;14738;42.668;23.250;2023-07-29T10:04:41;3.33;;;3.13;;
5297;SDS011;14738;42.668;23.250;2023-07-29T10:07:08;3.17;;;2.90;;
5297;SDS011;14738;42.668;23.250;2023-07-29T10:09:35;3.70;;;3.27;;
5297;SDS011;14738;42.668;23.250;2023-07-29T10:12:02;2.67;;;2.57;;
5297;SDS011;14738;42.668;23.250;2023-07-29T10:14:31;2.50;;;2.40;;
5297;SDS011;14738;42.668;23.250;2023-07-29T10:16:57;2.60;;;2.50;;
5297;SDS011;14738;42.668;23.250;2023-07-29T10:19:23;2.73;;;2.63;;
5297;SDS011;14738;42.668;23.250;2023-07-29T10:21:51;2.80;;;2.43;;
5297;SDS011;14738;42.668;23.250;2023-07-29T10:24:22;2.77;;;2.63;;
5297;SDS011;14738;42.668;23.250;2023-07-29T10:26:56;2.40;;;2.20;;
5297;SDS011;14738;42.668;23.250;2023-07-29T10:29:24;1.90;;;1.83;;
5297;SDS011;14738;42.668;23.250;2023-07-29T10:31:53;3.90;;;2.00;;
5297;SDS011;14738;42.668;23.250;2023-07-29T10:34:20;2.27;;;2.17;;
5297;SDS011;14738;42.668;23.250;2023-07-29T10:36:47;2.23;;;2.13;;
5297;SDS011;14738;42.668;23.250;2023-07-29T10:39:14;4.80;;;2.23;;
5297;SDS011;14738;42.668;23.250;2023-07-29T10:41:59;4.87;;;2.60;;
5297;SDS011;14738;42.668;23.250;2023-07-29T10:47:17;3.83;;;2.50;;
5297;SDS011;14738;42.668;23.250;2023-07-29T10:49:48;2.30;;;2.20;;
5297;SDS011;14738;42.668;23.250;2023-07-29T10:54:57;2.47;;;2.27;;
5297;SDS011;14738;42.668;23.250;2023-07-29T10:57:35;4.03;;;2.20;;
5297;SDS011;14738;42.668;23.250;2023-07-29T11:00:02;2.23;;;2.13;;
5297;SDS011;14738;42.668;23.250;2023-07-29T11:02:32;2.67;;;2.47;;
5297;SDS011;14738;42.668;23.250;2023-07-29T11:05:05;2.60;;;2.33;;
5297;SDS011;14738;42.668;23.250;2023-07-29T11:07:47;3.63;;;2.30;;
5297;SDS011;14738;42.668;23.250;2023-07-29T11:10:14;2.60;;;2.40;;
5297;SDS011;14738;42.668;23.250;2023-07-29T11:12:41;5.43;;;2.40;;
5297;SDS011;14738;42.668;23.250;2023-07-29T11:17:56;2.40;;;2.30;;
5297;SDS011;14738;42.668;23.250;2023-07-29T11:20:26;2.33;;;2.13;;
5297;SDS011;14738;42.668;23.250;2023-07-29T11:22:54;2.33;;;2.10;;
5297;SDS011;14738;42.668;23.250;2023-07-29T11:25:20;1.90;;;1.80;;
5297;SDS011;14738;42.668;23.250;2023-07-29T11:27:47;1.80;;;1.80;;
5297;SDS011;14738;42.668;23.250;2023-07-29T11:30:13;2.20;;;2.00;;
5297;SDS011;14738;42.668;23.250;2023-07-29T11:32:40;3.30;;;2.40;;
5297;SDS011;14738;42.668;23.250;2023-07-29T11:35:10;2.40;;;1.80;;
5297;SDS011;14738;42.668;23.250;2023-07-29T11:37:40;2.13;;;1.80;;
5297;SDS011;14738;42.668;23.250;2023-07-29T11:40:07;2.90;;;1.90;;
5297;SDS011;14738;42.668;23.250;2023-07-29T11:42:35;2.00;;;1.90;;
5297;SDS011;14738;42.668;23.250;2023-07-29T11:45:02;2.13;;;2.00;;
5297;SDS011;14738;42.668;23.250;2023-07-29T11:47:31;1.70;;;1.70;;
5297;SDS011;14738;42.668;23.250;2023-07-29T11:50:01;2.63;;;1.90;;
5297;SDS011;14738;42.668;23.250;2023-07-29T11:52:27;2.77;;;2.20;;
5297;SDS011;14738;42.668;23.250;2023-07-29T11:54:53;2.00;;;1.90;;
5297;SDS011;14738;42.668;23.250;2023-07-29T11:57:19;2.50;;;2.20;;
5297;SDS011;14738;42.668;23.250;2023-07-29T11:59:46;1.80;;;1.70;;
5297;SDS011;14738;42.668;23.250;2023-07-29T12:02:15;2.60;;;2.40;;
5297;SDS011;14738;42.668;23.250;2023-07-29T12:04:43;2.63;;;1.70;;
5297;SDS011;14738;42.668;23.250;2023-07-29T12:07:10;1.90;;;1.80;;
5297;SDS011;14738;42.668;23.250;2023-07-29T12:09:37;2.00;;;1.90;;
5297;SDS011;14738;42.668;23.250;2023-07-29T12:12:03;2.20;;;2.10;;
5297;SDS011;14738;42.668;23.250;2023-07-29T12:14:30;2.20;;;2.10;;
5297;SDS011;14738;42.668;23.250;2023-07-29T12:16:55;2.00;;;1.90;;
5297;SDS011;14738;42.668;23.250;2023-07-29T12:19:21;2.00;;;1.90;;
5297;SDS011;14738;42.668;23.250;2023-07-29T12:21:50;1.90;;;1.80;;
5297;SDS011;14738;42.668;23.250;2023-07-29T12:24:15;2.43;;;2.20;;
5297;SDS011;14738;42.668;23.250;2023-07-29T12:26:41;2.00;;;1.90;;
5297;SDS011;14738;42.668;23.250;2023-07-29T12:29:14;1.77;;;1.67;;
5297;SDS011;14738;42.668;23.250;2023-07-29T12:31:41;1.97;;;1.87;;
5297;SDS011;14738;42.668;23.250;2023-07-29T12:34:07;2.07;;;1.87;;
5297;SDS011;14738;42.668;23.250;2023-07-29T12:36:43;1.80;;;1.77;;
5297;SDS011;14738;42.668;23.250;2023-07-29T12:39:43;1.90;;;1.80;;
5297;SDS011;14738;42.668;23.250;2023-07-29T12:42:06;2.30;;;2.20;;
5297;SDS011;14738;42.668;23.250;2023-07-29T12:44:32;2.30;;;2.20;;
5297;SDS011;14738;42.668;23.250;2023-07-29T12:47:02;2.00;;;1.90;;
5297;SDS011;14738;42.668;23.250;2023-07-29T12:49:30;1.60;;;1.60;;
5297;SDS011;14738;42.668;23.250;2023-07-29T12:51:56;4.23;;;2.40;;
5297;SDS011;14738;42.668;23.250;2023-07-29T12:54:23;1.87;;;1.73;;
5297;SDS011;14738;42.668;23.250;2023-07-29T12:56:49;1.70;;;1.60;;
5297;SDS011;14738;42.668;23.250;2023-07-29T12:59:15;1.93;;;1.83;;
5297;SDS011;14738;42.668;23.250;2023-07-29T13:01:40;1.87;;;1.77;;
5297;SDS011;14738;42.668;23.250;2023-07-29T13:04:06;2.03;;;1.93;;
5297;SDS011;14738;42.668;23.250;2023-07-29T13:06:31;2.23;;;2.13;;
5297;SDS011;14738;42.668;23.250;2023-07-29T13:08:57;2.20;;;2.10;;
5297;SDS011;14738;42.668;23.250;2023-07-29T13:11:22;2.00;;;1.90;;
5297;SDS011;14738;42.668;23.250;2023-07-29T13:13:48;2.30;;;2.10;;
5297;SDS011;14738;42.668;23.250;2023-07-29T13:16:13;4.53;;;2.27;;
5297;SDS011;14738;42.668;23.250;2023-07-29T13:18:39;1.80;;;1.80;;
5297;SDS011;14738;42.668;23.250;2023-07-29T13:21:04;2.17;;;2.07;;
5297;SDS011;14738;42.668;23.250;2023-07-29T13:23:30;3.77;;;1.87;;
5297;SDS011;14738;42.668;23.250;2023-07-29T13:25:56;2.37;;;2.27;;
5297;SDS011;14738;42.668;23.250;2023-07-29T13:28:22;2.27;;;2.17;;
5297;SDS011;14738;42.668;23.250;2023-07-29T13:30:47;2.60;;;2.10;;
5297;SDS011;14738;42.668;23.250;2023-07-29T13:33:13;2.47;;;2.27;;
5297;SDS011;14738;42.668;23.250;2023-07-29T13:35:38;2.33;;;2.23;;
5297;SDS011;14738;42.668;23.250;2023-07-29T13:38:04;2.20;;;2.10;;
5297;SDS011;14738;42.668;23.250;2023-07-29T13:40:29;4.00;;;2.30;;
5297;SDS011;14738;42.668;23.250;2023-07-29T13:42:55;2.50;;;2.30;;
5297;SDS011;14738;42.668;23.250;2023-07-29T13:45:20;3.00;;;2.80;;
5297;SDS011;14738;42.668;23.250;2023-07-29T13:47:46;2.30;;;2.20;;
5297;SDS011;14738;42.668;23.250;2023-07-29T13:50:12;5.60;;;2.97;;
5297;SDS011;14738;42.668;23.250;2023-07-29T13:52:38;3.17;;;3.03;;
5297;SDS011;14738;42.668;23.250;2023-07-29T13:55:04;4.10;;;3.70;;
5297;SDS011;14738;42.668;23.250;2023-07-29T13:57:30;5.00;;;3.50;;
5297;SDS011;14738;42.668;23.250;2023-07-29T13:59:59;3.70;;;3.47;;
5297;SDS011;14738;42.668;23.250;2023-07-29T14:02:24;3.63;;;3.43;;
5297;SDS011;14738;42.668;23.250;2023-07-29T14:04:53;3.20;;;3.00;;
5297;SDS011;14738;42.668;23.250;2023-07-29T14:07:18;3.20;;;3.00;;
5297;SDS011;14738;42.668;23.250;2023-07-29T14:09:45;3.00;;;2.70;;
5297;SDS011;14738;42.668;23.250;2023-07-29T14:12:10;3.37;;;3.07;;
5297;SDS011;14738;42.668;23.250;2023-07-29T14:14:39;3.40;;;3.10;;
5297;SDS011;14738;42.668;23.250;2023-07-29T14:17:05;3.33;;;3.13;;
5297;SDS011;14738;42.668;23.250;2023-07-29T14:19:31;15.63;;;3.40;;
5297;SDS011;14738;42.668;23.250;2023-07-29T14:21:56;7.13;;;3.20;;
5297;SDS011;14738;42.668;23.250;2023-07-29T14:24:23;3.37;;;3.17;;
5297;SDS011;14738;42.668;23.250;2023-07-29T14:26:48;4.03;;;3.70;;
5297;SDS011;14738;42.668;23.250;2023-07-29T14:29:14;4.00;;;3.57;;
5297;SDS011;14738;42.668;23.250;2023-07-29T14:31:39;3.63;;;3.43;;
5297;SDS011;14738;42.668;23.250;2023-07-29T14:34:05;3.27;;;2.97;;
5297;SDS011;14738;42.668;23.250;2023-07-29T14:36:30;2.70;;;2.50;;
5297;SDS011;14738;42.668;23.250;2023-07-29T14:38:56;2.37;;;2.27;;
5297;SDS011;14738;42.668;23.250;2023-07-29T14:41:21;3.80;;;2.20;;
5297;SDS011;14738;42.668;23.250;2023-07-29T14:43:46;2.93;;;2.73;;
5297;SDS011;14738;42.668;23.250;2023-07-29T14:46:12;3.60;;;3.30;;
5297;SDS011;14738;42.668;23.250;2023-07-29T14:48:37;3.00;;;2.90;;
5297;SDS011;14738;42.668;23.250;2023-07-29T14:51:03;2.77;;;2.53;;
5297;SDS011;14738;42.668;23.250;2023-07-29T14:53:28;6.33;;;2.87;;
5297;SDS011;14738;42.668;23.250;2023-07-29T14:55:53;3.50;;;2.70;;
5297;SDS011;14738;42.668;23.250;2023-07-29T14:58:19;3.77;;;2.80;;
5297;SDS011;14738;42.668;23.250;2023-07-29T15:00:45;5.03;;;2.50;;
5297;SDS011;14738;42.668;23.250;2023-07-29T15:03:10;6.60;;;2.83;;